createdAt,value
2019-01-23T00:01:43.924Z,54.17
2019-01-23T00:04:12.069Z,48.87
2019-01-23T00:06:40.303Z,56.33
2019-01-23T00:09:08.445Z,53.30
2019-01-23T00:11:36.962Z,49.60
2019-01-23T00:14:06.032Z,55.57
2019-01-23T00:16:34.184Z,52.30
2019-01-23T00:19:03.012Z,49.13
2019-01-23T00:21:31.522Z,54.13
2019-01-23T00:24:00.085Z,50.17
2019-01-23T00:26:28.250Z,54.17
2019-01-23T00:28:56.415Z,56.10
2019-01-23T00:31:24.899Z,50.60
2019-01-23T00:33:53.082Z,53.23
2019-01-23T00:36:21.237Z,50.93
2019-01-23T00:38:49.874Z,49.97
2019-01-23T00:41:18.120Z,52.93
2019-01-23T00:43:46.600Z,49.63
2019-01-23T00:46:14.769Z,56.73
2019-01-23T00:48:43.279Z,47.80
2019-01-23T00:51:11.535Z,49.80
2019-01-23T00:53:39.701Z,53.20
2019-01-23T00:56:07.917Z,52.07
2019-01-23T00:58:36.178Z,50.37
2019-01-23T01:01:06.050Z,48.47
2019-01-23T01:03:34.203Z,51.40
2019-01-23T01:06:02.688Z,52.93
2019-01-23T01:08:30.852Z,47.97
2019-01-23T01:10:59.020Z,50.17
2019-01-23T01:13:27.171Z,51.60
2019-01-23T01:15:55.321Z,47.43
2019-01-23T01:18:23.495Z,52.97
2019-01-23T01:23:33.361Z,50.83
2019-01-23T01:26:01.525Z,54.17
2019-01-23T01:28:30.077Z,60.97
2019-01-23T01:30:58.576Z,54.20
2019-01-23T01:33:27.107Z,50.30
2019-01-23T01:35:55.626Z,54.83
2019-01-23T01:38:24.470Z,53.40
2019-01-23T01:40:53.045Z,57.27
2019-01-23T01:43:21.537Z,54.10
2019-01-23T01:45:50.077Z,51.80
2019-01-23T01:48:18.572Z,59.47
2019-01-23T01:50:47.049Z,53.53
2019-01-23T01:53:15.562Z,52.77
2019-01-23T01:55:44.121Z,52.13
2019-01-23T01:58:13.015Z,52.50
2019-01-23T02:00:41.670Z,50.73
2019-01-23T02:03:10.490Z,55.00
2019-01-23T02:05:39.007Z,52.03
2019-01-23T02:08:07.602Z,53.97
2019-01-23T02:10:36.166Z,48.53
2019-01-23T02:13:04.815Z,52.03
2019-01-23T02:15:33.375Z,56.50
2019-01-23T02:18:01.908Z,44.03
2019-01-23T02:20:30.385Z,50.23
2019-01-23T02:22:59.037Z,47.03
2019-01-23T02:25:27.667Z,44.27
2019-01-23T02:27:56.276Z,49.63
2019-01-23T02:30:24.889Z,50.00
2019-01-23T02:32:53.671Z,52.07
2019-01-23T02:35:22.304Z,51.87
2019-01-23T02:37:50.859Z,53.07
2019-01-23T02:40:21.345Z,51.67
2019-01-23T02:42:49.934Z,50.93
2019-01-23T02:45:19.236Z,52.07
2019-01-23T02:47:47.750Z,47.23
2019-01-23T02:50:16.773Z,51.90
2019-01-23T02:52:45.760Z,50.07
2019-01-23T02:55:14.850Z,54.03
2019-01-23T02:57:43.693Z,60.50
2019-01-23T03:00:13.099Z,47.53
2019-01-23T03:02:41.430Z,54.17
2019-01-23T03:05:11.047Z,53.63
2019-01-23T03:07:39.561Z,52.87
2019-01-23T03:10:09.400Z,54.17
2019-01-23T03:12:37.531Z,49.97
2019-01-23T03:15:07.445Z,57.73
2019-01-23T03:17:36.070Z,53.87
2019-01-23T03:20:06.024Z,55.20
2019-01-23T03:22:34.152Z,47.43
2019-01-23T03:25:02.330Z,54.33
2019-01-23T03:27:30.481Z,53.83
2019-01-23T03:29:58.650Z,53.70
2019-01-23T03:32:27.218Z,58.33
2019-01-23T03:34:56.035Z,51.93
2019-01-23T03:37:26.213Z,52.57
2019-01-23T03:39:54.389Z,59.63
2019-01-23T03:42:23.344Z,56.87
2019-01-23T03:44:52.390Z,56.20
2019-01-23T03:47:20.677Z,59.87
2019-01-23T03:49:48.854Z,50.90
2019-01-23T03:52:17.031Z,51.10
2019-01-23T03:54:46.026Z,52.10
2019-01-23T03:57:14.910Z,56.43
2019-01-23T03:59:43.081Z,57.27
2019-01-23T04:02:11.227Z,55.17
2019-01-23T04:04:39.712Z,51.07
2019-01-23T04:07:07.919Z,56.67
2019-01-23T04:09:36.142Z,56.30
2019-01-23T04:12:04.740Z,53.53
2019-01-23T04:14:33.256Z,61.13
2019-01-23T04:17:01.730Z,58.90
2019-01-23T04:19:30.284Z,53.13
2019-01-23T04:21:58.874Z,63.23
2019-01-23T04:24:27.027Z,58.60
2019-01-23T04:26:55.284Z,56.23
2019-01-23T04:29:23.451Z,55.67
2019-01-23T04:31:51.917Z,58.10
2019-01-23T04:34:20.155Z,48.10
2019-01-23T04:36:48.665Z,61.40
2019-01-23T04:39:17.152Z,51.00
2019-01-23T04:41:45.657Z,59.00
2019-01-23T04:44:13.822Z,56.73
2019-01-23T04:46:42.069Z,56.70
2019-01-23T04:49:10.601Z,54.50
2019-01-23T04:51:40.716Z,53.30
2019-01-23T04:54:10.401Z,55.90
2019-01-23T04:56:38.906Z,52.20
2019-01-23T04:59:07.661Z,57.17
2019-01-23T05:01:35.833Z,53.83
2019-01-23T05:04:04.930Z,55.57
2019-01-23T05:06:33.488Z,63.10
2019-01-23T05:09:02.087Z,54.10
2019-01-23T05:11:30.320Z,58.60
2019-01-23T05:13:58.486Z,62.10
2019-01-23T05:16:27.021Z,55.67
2019-01-23T05:18:55.521Z,54.87
2019-01-23T05:21:24.177Z,62.73
2019-01-23T05:23:52.490Z,59.07
2019-01-23T05:26:20.670Z,64.10
2019-01-23T05:28:48.837Z,57.13
2019-01-23T05:31:16.970Z,56.77
2019-01-23T05:33:45.480Z,62.13
2019-01-23T05:36:13.965Z,58.07
2019-01-23T05:38:42.539Z,61.07
2019-01-23T05:41:11.211Z,59.73
2019-01-23T05:43:40.105Z,56.80
2019-01-23T05:46:08.686Z,62.10
2019-01-23T05:48:36.827Z,61.87
2019-01-23T05:51:04.985Z,60.40
2019-01-23T05:53:33.146Z,59.37
2019-01-23T05:56:02.708Z,60.70
2019-01-23T05:58:31.194Z,60.60
2019-01-23T06:00:59.321Z,62.37
2019-01-23T06:03:27.504Z,55.27
2019-01-23T06:05:55.627Z,62.90
2019-01-23T06:08:23.808Z,62.43
2019-01-23T06:10:53.343Z,57.60
2019-01-23T06:13:21.529Z,57.23
2019-01-23T06:15:49.946Z,62.83
2019-01-23T06:18:18.088Z,63.60
2019-01-23T06:20:46.597Z,64.13
2019-01-23T06:23:15.120Z,58.83
2019-01-23T06:25:43.745Z,62.40
2019-01-23T06:28:12.329Z,61.50
2019-01-23T06:30:40.827Z,65.50
2019-01-23T06:33:09.667Z,65.97
2019-01-23T06:35:38.174Z,68.97
2019-01-23T06:38:06.650Z,66.17
2019-01-23T06:40:35.439Z,62.37
2019-01-23T06:43:03.952Z,58.90
2019-01-23T06:45:32.457Z,63.57
2019-01-23T06:48:00.965Z,64.67
2019-01-23T06:50:29.517Z,57.90
2019-01-23T06:52:58.021Z,59.83
2019-01-23T06:55:26.583Z,62.27
2019-01-23T06:57:55.085Z,64.60
2019-01-23T07:00:24.304Z,66.70
2019-01-23T07:02:53.055Z,64.40
2019-01-23T07:05:21.665Z,67.50
2019-01-23T07:07:50.149Z,62.83
2019-01-23T07:10:21.567Z,66.40
2019-01-23T07:12:50.113Z,66.97
2019-01-23T07:15:19.470Z,77.40
2019-01-23T07:17:47.947Z,75.33
2019-01-23T07:20:22.482Z,76.33
2019-01-23T07:22:51.104Z,61.07
2019-01-23T07:25:19.714Z,76.27
2019-01-23T07:27:48.218Z,67.60
2019-01-23T07:30:25.869Z,61.33
2019-01-23T07:32:54.354Z,74.50
2019-01-23T07:35:22.985Z,66.03
2019-01-23T07:37:51.612Z,64.27
2019-01-23T07:40:20.094Z,65.27
2019-01-23T07:42:48.581Z,68.40
2019-01-23T07:45:22.338Z,62.47
2019-01-23T07:47:50.992Z,63.83
2019-01-23T07:50:19.614Z,59.53
2019-01-23T07:52:48.317Z,70.00
2019-01-23T07:55:18.913Z,67.77
2019-01-23T07:57:47.788Z,60.47
2019-01-23T08:00:18.519Z,67.23
2019-01-23T08:02:47.301Z,71.87
2019-01-23T08:05:19.528Z,67.03
2019-01-23T08:07:48.441Z,66.07
2019-01-23T08:10:18.854Z,60.60
2019-01-23T08:12:47.689Z,57.90
2019-01-23T08:15:21.817Z,70.77
2019-01-23T08:17:50.361Z,69.20
2019-01-23T08:20:21.312Z,65.80
2019-01-23T08:22:50.130Z,72.57
2019-01-23T08:25:18.822Z,69.43
2019-01-23T08:27:47.319Z,68.47
2019-01-23T08:30:18.766Z,72.40
2019-01-23T08:32:47.388Z,68.03
2019-01-23T08:35:17.030Z,66.43
2019-01-23T08:37:45.884Z,64.30
2019-01-23T08:40:18.470Z,67.90
2019-01-23T08:42:46.946Z,75.10
2019-01-23T08:45:16.178Z,63.83
2019-01-23T08:47:44.771Z,64.87
2019-01-23T08:50:28.621Z,57.37
2019-01-23T08:52:56.840Z,64.40
2019-01-23T08:55:26.334Z,70.97
2019-01-23T08:57:54.867Z,66.23
2019-01-23T09:00:23.076Z,62.10
2019-01-23T09:02:51.326Z,64.37
2019-01-23T09:05:19.928Z,64.77
2019-01-23T09:07:48.190Z,66.20
2019-01-23T09:10:21.394Z,66.93
2019-01-23T09:12:50.346Z,70.80
2019-01-23T09:15:18.544Z,67.47
2019-01-23T09:17:47.090Z,63.67
2019-01-23T09:20:19.714Z,76.07
2019-01-23T09:22:49.087Z,71.67
2019-01-23T09:25:20.272Z,73.07
2019-01-23T09:27:49.609Z,70.10
2019-01-23T09:30:30.335Z,70.37
2019-01-23T09:33:21.764Z,70.93
2019-01-23T09:35:54.461Z,61.53
2019-01-23T09:38:29.096Z,64.50
2019-01-23T09:41:01.065Z,57.33
2019-01-23T09:43:35.582Z,63.73
2019-01-23T09:46:11.300Z,67.27
2019-01-23T09:48:57.913Z,56.70
2019-01-23T09:51:44.589Z,58.77
2019-01-23T09:54:13.456Z,60.20
2019-01-23T09:56:44.387Z,56.77
2019-01-23T09:59:12.874Z,62.43
2019-01-23T10:01:41.452Z,64.00
2019-01-23T10:04:09.914Z,60.17
2019-01-23T10:06:38.503Z,58.80
2019-01-23T10:09:08.313Z,58.50
2019-01-23T10:11:36.802Z,60.67
2019-01-23T10:14:05.434Z,59.13
2019-01-23T10:16:33.988Z,71.23
2019-01-23T10:19:03.150Z,68.37
2019-01-23T10:21:31.363Z,66.60
2019-01-23T10:23:59.876Z,62.60
2019-01-23T10:26:28.035Z,61.33
2019-01-23T10:28:56.467Z,64.67
2019-01-23T10:31:24.972Z,66.13
2019-01-23T10:33:53.446Z,60.53
2019-01-23T10:36:22.164Z,60.57
2019-01-23T10:38:50.999Z,64.33
2019-01-23T10:41:19.637Z,59.23
2019-01-23T10:43:48.186Z,56.80
2019-01-23T10:46:17.696Z,59.33
2019-01-23T10:48:46.778Z,54.63
2019-01-23T10:51:15.320Z,61.17
2019-01-23T10:53:43.950Z,71.63
2019-01-23T10:56:12.459Z,69.47
2019-01-23T10:58:40.955Z,61.23
2019-01-23T11:01:13.348Z,68.67
2019-01-23T11:03:39.475Z,67.47
2019-01-23T11:06:08.016Z,67.63
2019-01-23T11:08:36.232Z,57.70
2019-01-23T11:11:04.584Z,57.83
2019-01-23T11:13:33.113Z,63.60
2019-01-23T11:16:01.360Z,66.20
2019-01-23T11:18:29.514Z,65.07
2019-01-23T11:20:57.651Z,60.87
2019-01-23T11:23:25.870Z,64.80
2019-01-23T11:25:54.419Z,71.03
2019-01-23T11:28:22.895Z,62.73
2019-01-23T11:30:51.377Z,62.57
2019-01-23T11:33:19.867Z,57.10
2019-01-23T11:35:48.361Z,67.80
2019-01-23T11:38:16.591Z,62.00
2019-01-23T11:40:45.080Z,64.10
2019-01-23T11:43:13.542Z,60.97
2019-01-23T11:45:42.123Z,59.90
2019-01-23T11:48:11.013Z,67.63
2019-01-23T11:50:40.312Z,66.73
2019-01-23T11:53:08.861Z,54.27
2019-01-23T11:55:37.375Z,61.93
2019-01-23T11:58:05.857Z,65.00
2019-01-23T12:00:36.323Z,63.00
2019-01-23T12:03:05.367Z,64.80
2019-01-23T12:05:33.613Z,63.57
2019-01-23T12:08:02.167Z,66.73
2019-01-23T12:10:30.313Z,67.77
2019-01-23T12:12:58.813Z,63.03
2019-01-23T12:15:27.316Z,62.17
2019-01-23T12:17:55.978Z,59.93
2019-01-23T12:20:24.533Z,61.10
2019-01-23T12:22:52.770Z,57.50
2019-01-23T12:25:21.315Z,66.17
2019-01-23T12:27:49.896Z,65.23
2019-01-23T12:30:22.603Z,58.03
2019-01-23T12:32:50.821Z,59.63
2019-01-23T12:35:18.998Z,55.30
2019-01-23T12:37:47.563Z,55.00
2019-01-23T12:40:17.069Z,63.57
2019-01-23T12:42:45.242Z,59.03
2019-01-23T12:45:22.468Z,64.47
2019-01-23T12:47:51.545Z,59.43
2019-01-23T12:50:23.034Z,58.83
2019-01-23T12:52:51.495Z,56.83
2019-01-23T12:55:20.087Z,65.27
2019-01-23T12:57:48.955Z,59.27
2019-01-23T13:00:18.940Z,66.07
2019-01-23T13:02:47.762Z,63.10
2019-01-23T13:05:18.876Z,63.27
2019-01-23T13:07:47.605Z,60.57
2019-01-23T13:10:18.056Z,67.90
2019-01-23T13:12:46.889Z,60.60
2019-01-23T13:15:18.365Z,59.97
2019-01-23T13:17:46.941Z,63.70
2019-01-23T13:20:20.452Z,63.03
2019-01-23T13:22:49.009Z,69.43
2019-01-23T13:25:19.951Z,67.07
2019-01-23T13:27:48.163Z,71.07
2019-01-23T13:30:17.562Z,74.53
2019-01-23T13:33:05.480Z,82.27
2019-01-23T13:35:36.760Z,80.53
2019-01-23T13:38:07.921Z,74.67
2019-01-23T13:40:37.366Z,71.03
2019-01-23T13:43:07.238Z,81.73
2019-01-23T13:45:35.485Z,81.93
2019-01-23T13:48:05.114Z,65.33
2019-01-23T13:50:33.279Z,77.67
2019-01-23T13:53:01.829Z,88.87
2019-01-23T13:55:30.413Z,76.73
2019-01-23T13:57:58.913Z,72.03
2019-01-23T14:00:40.033Z,70.53
2019-01-23T14:03:09.347Z,73.17
2019-01-23T14:05:37.503Z,77.63
2019-01-23T14:08:07.047Z,80.10
2019-01-23T14:10:35.688Z,75.27
2019-01-23T14:13:04.526Z,83.73
2019-01-23T14:15:38.380Z,76.03
2019-01-23T14:18:07.388Z,70.37
2019-01-23T14:20:35.882Z,77.97
2019-01-23T14:23:04.816Z,74.87
2019-01-23T14:25:33.593Z,77.47
2019-01-23T14:28:01.753Z,77.27
2019-01-23T14:30:38.480Z,75.37
2019-01-23T14:33:07.140Z,81.27
2019-01-23T14:35:36.960Z,69.50
2019-01-23T14:38:06.000Z,73.47
2019-01-23T14:40:34.659Z,64.53
2019-01-23T14:43:03.269Z,70.70
2019-01-23T14:45:31.753Z,65.57
2019-01-23T14:48:00.265Z,57.10
2019-01-23T14:50:28.503Z,74.43
2019-01-23T14:52:56.672Z,63.43
2019-01-23T14:55:26.296Z,59.00
2019-01-23T14:57:54.941Z,57.63
2019-01-23T15:00:25.549Z,61.97
2019-01-23T15:02:53.790Z,56.50
2019-01-23T15:05:22.346Z,57.07
2019-01-23T15:07:50.835Z,59.00
2019-01-23T15:10:40.177Z,52.37
2019-01-23T15:13:09.077Z,53.23
2019-01-23T15:15:37.569Z,50.07
2019-01-23T15:18:06.338Z,52.30
2019-01-23T15:20:37.048Z,53.97
2019-01-23T15:23:05.695Z,53.00
2019-01-23T15:25:34.457Z,54.67
2019-01-23T15:28:03.063Z,51.27
2019-01-23T15:30:31.678Z,59.17
2019-01-23T15:33:00.510Z,52.77
2019-01-23T15:35:29.086Z,56.23
2019-01-23T15:37:57.633Z,58.23
2019-01-23T15:40:28.977Z,56.60
2019-01-23T15:42:57.469Z,61.87
2019-01-23T15:45:26.434Z,64.80
2019-01-23T15:47:55.269Z,71.83
2019-01-23T15:50:26.264Z,58.57
2019-01-23T15:52:54.753Z,65.00
2019-01-23T15:55:25.097Z,58.50
2019-01-23T15:57:53.703Z,72.60
2019-01-23T16:00:25.247Z,72.30
2019-01-23T16:02:53.863Z,74.10
2019-01-23T16:05:22.433Z,71.47
2019-01-23T16:07:50.976Z,68.33
2019-01-23T16:10:22.025Z,71.93
2019-01-23T16:12:50.863Z,72.77
2019-01-23T16:15:21.832Z,71.33
2019-01-23T16:17:50.384Z,77.67
2019-01-23T16:20:19.004Z,68.50
2019-01-23T16:22:47.638Z,78.03
2019-01-23T16:25:17.664Z,71.50
2019-01-23T16:27:46.500Z,66.20
2019-01-23T16:30:23.666Z,73.20
2019-01-23T16:32:52.305Z,76.87
2019-01-23T16:35:21.267Z,72.50
2019-01-23T16:37:49.991Z,75.17
2019-01-23T16:40:18.830Z,69.00
2019-01-23T16:42:47.576Z,75.47
2019-01-23T16:45:20.191Z,67.67
2019-01-23T16:47:48.826Z,70.60
2019-01-23T16:50:25.469Z,71.23
2019-01-23T16:52:54.294Z,61.87
2019-01-23T16:55:23.430Z,66.53
2019-01-23T16:57:52.869Z,59.53
2019-01-23T17:00:24.301Z,72.43
2019-01-23T17:02:53.359Z,66.27
2019-01-23T17:05:24.797Z,62.57
2019-01-23T17:07:53.320Z,64.57
2019-01-23T17:10:24.056Z,63.50
2019-01-23T17:12:52.737Z,61.33
2019-01-23T17:15:21.328Z,61.43
2019-01-23T17:17:50.076Z,65.80
2019-01-23T17:20:24.343Z,61.47
2019-01-23T17:22:53.203Z,65.73
2019-01-23T17:25:21.749Z,60.97
2019-01-23T17:27:50.414Z,61.90
2019-01-23T17:30:20.327Z,68.27
2019-01-23T17:32:49.170Z,63.57
2019-01-23T17:35:21.537Z,73.47
2019-01-23T17:37:50.102Z,70.43
2019-01-23T17:40:25.376Z,58.13
2019-01-23T17:42:53.935Z,72.80
2019-01-23T17:45:28.326Z,75.47
2019-01-23T17:47:56.893Z,70.23
2019-01-23T17:50:25.547Z,69.77
2019-01-23T17:52:54.113Z,72.17
2019-01-23T17:55:25.395Z,72.77
2019-01-23T17:57:54.213Z,67.27
2019-01-23T18:00:26.630Z,73.00
2019-01-23T18:02:55.478Z,72.37
2019-01-23T18:05:24.321Z,77.40
2019-01-23T18:07:52.798Z,70.83
2019-01-23T18:10:21.352Z,76.63
2019-01-23T18:12:50.288Z,72.37
2019-01-23T18:15:21.699Z,68.53
2019-01-23T18:17:50.646Z,66.47
2019-01-23T18:20:22.001Z,69.00
2019-01-23T18:22:50.472Z,63.83
2019-01-23T18:25:19.130Z,65.17
2019-01-23T18:27:47.588Z,67.90
2019-01-23T18:30:19.297Z,73.83
2019-01-23T18:32:48.653Z,56.87
2019-01-23T18:35:28.513Z,67.93
2019-01-23T18:38:03.207Z,63.67
2019-01-23T18:40:53.992Z,64.07
2019-01-23T18:43:37.534Z,62.10
2019-01-23T18:46:32.150Z,61.27
2019-01-23T18:49:16.070Z,55.47
2019-01-23T18:51:45.614Z,71.00
2019-01-23T18:54:14.161Z,60.53
2019-01-23T18:56:42.750Z,60.33
2019-01-23T18:59:11.275Z,61.23
2019-01-23T19:01:39.773Z,55.27
2019-01-23T19:04:08.323Z,57.93
2019-01-23T19:06:36.837Z,59.93
2019-01-23T19:09:08.256Z,60.13
2019-01-23T19:11:36.990Z,58.83
2019-01-23T19:14:05.548Z,55.10
2019-01-23T19:16:34.266Z,58.30
2019-01-23T19:19:02.803Z,52.10
2019-01-23T19:21:31.376Z,55.90
2019-01-23T19:23:59.858Z,53.83
2019-01-23T19:26:28.346Z,55.03
2019-01-23T19:28:56.850Z,53.20
2019-01-23T19:31:25.696Z,59.30
2019-01-23T19:33:54.198Z,55.60
2019-01-23T19:36:22.350Z,53.07
2019-01-23T19:38:50.868Z,66.00
2019-01-23T19:41:20.470Z,58.03
2019-01-23T19:43:52.916Z,55.20
2019-01-23T19:46:21.413Z,60.97
2019-01-23T19:48:49.585Z,63.17
2019-01-23T19:51:18.140Z,58.63
2019-01-23T19:53:46.617Z,60.67
2019-01-23T19:56:15.528Z,53.90
2019-01-23T19:58:43.986Z,58.63
2019-01-23T20:01:12.544Z,58.17
2019-01-23T20:03:41.528Z,64.10
2019-01-23T20:06:10.575Z,51.77
2019-01-23T20:08:40.532Z,68.93
2019-01-23T20:11:09.057Z,56.77
2019-01-23T20:13:37.536Z,63.30
2019-01-23T20:16:06.062Z,52.90
2019-01-23T20:18:34.573Z,54.57
2019-01-23T20:21:03.077Z,59.83
2019-01-23T20:23:31.575Z,58.00
2019-01-23T20:26:00.052Z,54.33
2019-01-23T20:28:28.236Z,59.57
2019-01-23T20:30:56.392Z,67.47
2019-01-23T20:33:28.154Z,52.07
2019-01-23T20:35:55.231Z,59.43
2019-01-23T20:38:23.686Z,53.60
2019-01-23T20:40:52.210Z,55.23
2019-01-23T20:43:21.335Z,58.37
2019-01-23T20:45:49.845Z,55.20
2019-01-23T20:48:18.388Z,57.93
2019-01-23T20:50:46.876Z,56.00
2019-01-23T20:53:16.689Z,52.37
2019-01-23T20:55:46.028Z,52.80
2019-01-23T20:58:15.467Z,60.43
2019-01-23T21:00:43.958Z,55.53
2019-01-23T21:03:12.821Z,58.97
2019-01-23T21:05:42.191Z,57.33
2019-01-23T21:08:10.663Z,53.23
2019-01-23T21:10:39.199Z,58.03
2019-01-23T21:13:07.786Z,59.13
2019-01-23T21:15:36.038Z,57.67
2019-01-23T21:18:05.038Z,56.97
2019-01-23T21:20:33.602Z,59.80
2019-01-23T21:23:02.226Z,55.30
2019-01-23T21:25:30.855Z,66.93
2019-01-23T21:27:59.344Z,64.17
2019-01-23T21:30:27.841Z,64.20
2019-01-23T21:32:57.403Z,64.27
2019-01-23T21:35:25.879Z,55.40
2019-01-23T21:37:54.739Z,62.60
2019-01-23T21:40:29.426Z,58.03
2019-01-23T21:42:58.000Z,67.27
2019-01-23T21:45:26.600Z,73.73
2019-01-23T21:47:55.406Z,77.50
2019-01-23T21:50:25.153Z,80.03
2019-01-23T21:52:53.362Z,75.90
2019-01-23T21:55:24.104Z,69.77
2019-01-23T21:57:53.091Z,65.73
2019-01-23T22:00:26.910Z,69.13
2019-01-23T22:02:56.922Z,62.37
2019-01-23T22:05:25.538Z,60.57
2019-01-23T22:07:54.035Z,66.73
2019-01-23T22:10:22.584Z,89.40
2019-01-23T22:12:51.105Z,75.63
2019-01-23T22:15:22.570Z,65.93
2019-01-23T22:17:51.327Z,69.20
2019-01-23T22:20:21.383Z,61.53
2019-01-23T22:22:49.888Z,64.53
2019-01-23T22:25:20.220Z,55.07
2019-01-23T22:27:48.934Z,61.57
2019-01-23T22:30:22.282Z,66.43
2019-01-23T22:32:50.762Z,58.93
2019-01-23T22:35:19.289Z,65.40
2019-01-23T22:37:48.153Z,60.47
2019-01-23T22:40:18.667Z,58.80
2019-01-23T22:42:47.425Z,60.73
2019-01-23T22:45:20.871Z,61.33
2019-01-23T22:47:49.497Z,67.17
2019-01-23T22:50:23.315Z,72.27
2019-01-23T22:52:52.421Z,69.13
2019-01-23T22:55:21.294Z,71.67
2019-01-23T22:57:49.937Z,65.53
2019-01-23T23:00:24.109Z,66.43
2019-01-23T23:02:52.747Z,60.80
2019-01-23T23:05:21.392Z,67.33
2019-01-23T23:07:50.308Z,67.70
2019-01-23T23:10:18.917Z,67.47
2019-01-23T23:12:47.479Z,64.30
2019-01-23T23:15:16.512Z,60.43
2019-01-23T23:17:45.154Z,67.90
2019-01-23T23:20:14.068Z,61.20
2019-01-23T23:22:42.586Z,57.27
2019-01-23T23:25:11.602Z,71.97
2019-01-23T23:27:40.242Z,62.30
2019-01-23T23:30:12.945Z,59.20
2019-01-23T23:32:41.776Z,61.13
2019-01-23T23:35:10.395Z,68.53
2019-01-23T23:37:38.916Z,61.70
2019-01-23T23:40:14.965Z,64.37
2019-01-23T23:42:43.787Z,60.50
2019-01-23T23:45:15.117Z,67.63
2019-01-23T23:47:43.938Z,66.90
2019-01-23T23:50:15.529Z,59.47
2019-01-23T23:52:44.153Z,67.77
2019-01-23T23:55:14.723Z,64.17
2019-01-23T23:57:43.022Z,61.70
